WetterOnline ( https://www.wetteronline.de )

Wetter aktuell Ischia

Aktuelles Wetter: Istrana (46m)

6-stündlich | Neueste Meldungen
Ortszeit Temperatur Wetter
Do, 01.10. 2:00 17.4° C bewölkt
Mi, 30.09. 20:00 17.6° C bewölkt
Mi, 30.09. 14:00 20.4° C wolkig
Mi, 30.09. 8:00 11.0° C leicht bewölkt
Mi, 30.09. 2:00 13.6° C wolkenlos
Di, 29.09. 20:00 17.0° C wolkenlos
Di, 29.09. 14:00 19.8° C leicht bewölkt
Di, 29.09. 8:00 9.8° C fast wolkenlos
Ortszeit Temperatur Wetter
Do, 01.10. 6:00 15.0° C bewölkt
Do, 01.10. 5:55 15° C bewölkt
Do, 01.10. 5:00 15.4° C bewölkt
Do, 01.10. 4:55 15° C bewölkt
Do, 01.10. 4:00 17.2° C bewölkt
Do, 01.10. 3:55 17° C bewölkt
Do, 01.10. 3:00 17.4° C bewölkt
Do, 01.10. 2:55 17° C bewölkt
Do, 01.10. 2:00 17.4° C bewölkt
Ortszeit Relative Feuchte Sichtweite
Do, 01.10. 2:00 94% 8 km
Mi, 30.09. 20:00 94% 10 km
Mi, 30.09. 14:00 69% 12 km
Mi, 30.09. 8:00 95% 10 km
Mi, 30.09. 2:00 92% 10 km
Di, 29.09. 20:00 88% 15 km
Di, 29.09. 14:00 62% 20 km
Di, 29.09. 8:00 92% 20 km
Ortszeit Relative Feuchte Sichtweite
Do, 01.10. 6:00 96% 7 km
Do, 01.10. 5:55 94% 7 km
Do, 01.10. 5:00 94% 6 km
Do, 01.10. 4:55 94% 6 km
Do, 01.10. 4:00 95% 8 km
Do, 01.10. 3:55 94% 8 km
Do, 01.10. 3:00 95% 8 km
Do, 01.10. 2:55 100% 8 km
Do, 01.10. 2:00 94% 8 km
Ortszeit Niederschlagsmenge Niederschlagsart
Do, 01.10. 2:00 0.0 l/m2 in 6 Std. -
Mi, 30.09. 20:00 0.0 l/m2 in 12 Std. -
Mi, 30.09. 14:00 0.0 l/m2 in 6 Std. -
Mi, 30.09. 8:00 0.0 l/m2 in 12 Std. -
Mi, 30.09. 2:00 0.0 l/m2 in 6 Std. -
Di, 29.09. 20:00 0.0 l/m2 in 12 Std. -
Di, 29.09. 14:00 0.0 l/m2 in 6 Std. -
Di, 29.09. 8:00 0.0 l/m2 in 12 Std. -
Ortszeit Niederschlagsmenge Niederschlagsart
Do, 01.10. 6:00 keine Meldung -
Do, 01.10. 5:55 keine Meldung -
Do, 01.10. 5:00 keine Meldung -
Do, 01.10. 4:55 keine Meldung -
Do, 01.10. 4:00 keine Meldung -
Do, 01.10. 3:55 keine Meldung -
Do, 01.10. 3:00 keine Meldung -
Do, 01.10. 2:55 keine Meldung -
Do, 01.10. 2:00 keine Meldung -
Ortszeit Stärke Spitze Richtung
km/h Bft. km/h Grad Sektor
Do, 01.10. 2:00 6 1 - 30° NO
Mi, 30.09. 20:00 6 1 - 150° SO
Mi, 30.09. 14:00 11 2 - 270° W
Mi, 30.09. 8:00 6 1 - 60° NO
Mi, 30.09. 2:00 6 1 - 20° N
Di, 29.09. 20:00 6 1 - 120° SO
Di, 29.09. 14:00 6 1 - 170° S
Di, 29.09. 8:00 4 1 - 100° O
Ortszeit Stärke Spitze Richtung
km/h Bft. km/h Grad Sektor
Do, 01.10. 6:00 9 2 - 50° NO
Do, 01.10. 5:55 9 2 - 50° NO
Do, 01.10. 5:00 9 2 - 70° O
Do, 01.10. 4:55 9 2 - 70° O
Do, 01.10. 4:00 6 1 - 80° O
Do, 01.10. 3:55 6 1 - 80° O
Do, 01.10. 3:00 6 1 - 90° O
Do, 01.10. 2:55 6 1 - 90° O
Do, 01.10. 2:00 6 1 - 30° NO
Ortszeit Untergrenze Bedeckung Gattung
total tief tief mittel hoch
Do, 01.10. 2:00 1200 m 7/8 7/8 Sc - -
Mi, 30.09. 20:00 1200 m 7/8 7/8 Sc - -
Mi, 30.09. 14:00 900 m 6/8 4/8 Cu - Ci
Mi, 30.09. 8:00 3000 m 2/8 2/8 - Ac -
Mi, 30.09. 2:00 - 0/8 0/8 - - -
Di, 29.09. 20:00 - 0/8 0/8 - - -
Di, 29.09. 14:00 750 m 2/8 2/8 Cu - -
Di, 29.09. 8:00 2100 m 1/8 1/8 - Ac -
Ortszeit Bedeckungsgrad in Achtel und Wolkenuntergrenze
Do, 01.10. 6:00 7(1200m)
Do, 01.10. 5:55 5-7(1200m)
Do, 01.10. 5:00 7(1200m)
Do, 01.10. 4:55 5-7(1200m)
Do, 01.10. 4:00 7(1200m)
Do, 01.10. 3:55 5-7(1200m)
Do, 01.10. 3:00 7(1200m)
Do, 01.10. 2:55 5-7(1200m)
Do, 01.10. 2:00 7(1200m)
Ortszeit Luftdruck NN (hPa) Tendenz (hPa in 3 Std.)
Do, 01.10. 2:00 1012 - 1,0
Mi, 30.09. 20:00 1013 - 0,6
Mi, 30.09. 14:00 1015 - 1,6
Mi, 30.09. 8:00 1016 - 1,2
Mi, 30.09. 2:00 1017 0,0
Di, 29.09. 20:00 1017 + 0,2
Di, 29.09. 14:00 1017 + 0,1
Di, 29.09. 8:00 1015 + 0,7
Ortszeit Luftdruck NN (hPa) Tendenz (hPa in 3 Std.)
Do, 01.10. 6:00 1011 - 1,2
Do, 01.10. 5:55 1010 keine Meldung
Do, 01.10. 5:00 1010 - 1,8
Do, 01.10. 4:55 1010 keine Meldung
Do, 01.10. 4:00 1011 - 1,5
Do, 01.10. 3:55 1011 keine Meldung
Do, 01.10. 3:00 1012 - 1,5
Do, 01.10. 2:55 1011 keine Meldung
Do, 01.10. 2:00 1012 - 1,0
Ortszeit Schneehöhe (cm)
Do, 01.10. 2:00 -
Mi, 30.09. 20:00 -
Mi, 30.09. 14:00 -
Mi, 30.09. 8:00 0
Mi, 30.09. 2:00 -
Di, 29.09. 20:00 -
Di, 29.09. 14:00 -
Di, 29.09. 8:00 0
Ortszeit Schneehöhe (cm)
Do, 01.10. 6:00 -
Do, 01.10. 5:55 -
Do, 01.10. 5:00 -
Do, 01.10. 4:55 -
Do, 01.10. 4:00 -
Do, 01.10. 3:55 -
Do, 01.10. 3:00 -
Do, 01.10. 2:55 -
Do, 01.10. 2:00 -
Link zu dieser Seite / Seite empfehlen

Das Wetter in ...